EastWest Aircraft Sales has several offices across the USA. See map for information on the nearest airstrips.

Naples Municipal Airport

Available data for KAPF from the past 2 hours
NAPLES MUNICIPAL, FL
TAF
KAPF 172321Z 1800/1824 23010KT P6SM VCTS SCT025CB BKN050 FM180100 VRB06KT P6SM VCSH SCT025 BKN050 FM180300 VRB03KT P6SM FEW025 SCT050 BKN100 FM181400 14008KT P6SM FEW030 SCT250 FM181700 21010KT P6SM VCTS SCT030CB SCT250
Pirep (1)
RSW UA /OV RSW240005/TM 2352/FL015/TP A320/WX VMC

Hillsboro Airport

Available data for KHIO from the past 2 hours
HILLSBORO/PORTLD, OR
Metar
KHIO 180053Z 22006KT 10SM OVC043 22/14 A2994 RMK AO2 SLP135 T02220139

00:53 UTC

Wind: 220° 6kt

Visibility: 10 SM

Sky: OVC 4300 ft

Temp: 22 deg C / 71.6 deg F

Dewpoint: 14 deg C / 57.2 deg F

Pressure: 29.94 inHg

TAF
KHIO 172328Z 1800/1824 23011G16KT P6SM -SHRA SCT030 OVC045 FM180300 24005KT 5SM -SHRA BR BKN020 OVC030 FM181200 28003KT P6SM OVC040